sensor_id;sensor_type;location;lat;lon;timestamp;P1;durP1;ratioP1;P2;durP2;ratioP2
5157;SDS011;2598;52.364;9.772;2022-12-07T10:49:57;6.68;;;1.88;;
5157;SDS011;2598;52.364;9.772;2022-12-07T10:57:28;5.67;;;1.20;;
5157;SDS011;2598;52.364;9.772;2022-12-07T11:00:04;5.07;;;1.20;;
5157;SDS011;2598;52.364;9.772;2022-12-07T11:02:40;6.00;;;1.77;;
5157;SDS011;2598;52.364;9.772;2022-12-07T11:05:16;7.60;;;1.50;;
5157;SDS011;2598;52.364;9.772;2022-12-07T11:07:52;9.50;;;1.40;;
5157;SDS011;2598;52.364;9.772;2022-12-07T11:12:59;7.70;;;1.57;;
5157;SDS011;2598;52.364;9.772;2022-12-07T11:18:59;11.03;;;2.00;;
5157;SDS011;2598;52.364;9.772;2022-12-07T11:21:04;14.73;;;1.60;;
5157;SDS011;2598;52.364;9.772;2022-12-07T11:28:41;7.13;;;1.40;;
5157;SDS011;2598;52.364;9.772;2022-12-07T11:31:22;8.30;;;1.73;;
5157;SDS011;2598;52.364;9.772;2022-12-07T11:33:57;8.80;;;1.93;;
5157;SDS011;2598;52.364;9.772;2022-12-07T11:36:40;8.40;;;1.73;;
5157;SDS011;2598;52.364;9.772;2022-12-07T11:39:15;5.40;;;1.20;;
5157;SDS011;2598;52.364;9.772;2022-12-07T11:41:41;4.77;;;1.03;;
5157;SDS011;2598;52.364;9.772;2022-12-07T11:44:12;5.13;;;1.20;;
5157;SDS011;2598;52.364;9.772;2022-12-07T11:46:47;4.47;;;1.10;;
5157;SDS011;2598;52.364;9.772;2022-12-07T11:52:01;5.27;;;1.13;;
5157;SDS011;2598;52.364;9.772;2022-12-07T11:54:29;5.60;;;1.00;;
5157;SDS011;2598;52.364;9.772;2022-12-07T11:56:59;6.37;;;1.20;;
5157;SDS011;2598;52.364;9.772;2022-12-07T11:59:36;4.30;;;1.10;;
5157;SDS011;2598;52.364;9.772;2022-12-07T12:07:05;6.40;;;1.40;;
5157;SDS011;2598;52.364;9.772;2022-12-07T12:09:34;8.93;;;1.40;;
5157;SDS011;2598;52.364;9.772;2022-12-07T12:19:59;6.27;;;1.40;;
5157;SDS011;2598;52.364;9.772;2022-12-07T12:22:28;6.03;;;1.53;;
5157;SDS011;2598;52.364;9.772;2022-12-07T12:24:58;7.60;;;1.50;;
5157;SDS011;2598;52.364;9.772;2022-12-07T12:27:25;8.30;;;1.40;;
5157;SDS011;2598;52.364;9.772;2022-12-07T12:29:53;7.40;;;1.40;;
5157;SDS011;2598;52.364;9.772;2022-12-07T12:32:20;9.60;;;1.80;;
5157;SDS011;2598;52.364;9.772;2022-12-07T12:37:38;6.67;;;1.70;;
5157;SDS011;2598;52.364;9.772;2022-12-07T12:42:52;8.33;;;1.60;;
5157;SDS011;2598;52.364;9.772;2022-12-07T12:45:22;9.90;;;1.67;;
5157;SDS011;2598;52.364;9.772;2022-12-07T12:48:02;5.33;;;1.57;;
5157;SDS011;2598;52.364;9.772;2022-12-07T12:50:30;8.20;;;1.93;;
5157;SDS011;2598;52.364;9.772;2022-12-07T12:58:34;9.00;;;2.00;;
5157;SDS011;2598;52.364;9.772;2022-12-07T13:03:51;10.93;;;2.30;;
5157;SDS011;2598;52.364;9.772;2022-12-07T13:08:44;8.63;;;1.90;;
5157;SDS011;2598;52.364;9.772;2022-12-07T13:11:31;15.70;;;1.77;;
5157;SDS011;2598;52.364;9.772;2022-12-07T13:16:42;10.73;;;1.97;;
5157;SDS011;2598;52.364;9.772;2022-12-07T13:21:52;11.23;;;1.63;;
5157;SDS011;2598;52.364;9.772;2022-12-07T13:24:18;8.43;;;1.73;;
5157;SDS011;2598;52.364;9.772;2022-12-07T13:26:45;10.40;;;2.27;;
5157;SDS011;2598;52.364;9.772;2022-12-07T13:34:04;8.23;;;1.30;;
5157;SDS011;2598;52.364;9.772;2022-12-07T13:36:37;8.10;;;1.67;;
5157;SDS011;2598;52.364;9.772;2022-12-07T13:41:41;5.63;;;1.53;;
5157;SDS011;2598;52.364;9.772;2022-12-07T13:44:16;6.77;;;1.93;;
5157;SDS011;2598;52.364;9.772;2022-12-07T13:46:55;8.20;;;1.70;;
5157;SDS011;2598;52.364;9.772;2022-12-07T13:49:24;10.47;;;1.93;;
5157;SDS011;2598;52.364;9.772;2022-12-07T13:51:51;9.60;;;1.50;;
5157;SDS011;2598;52.364;9.772;2022-12-07T13:54:17;10.97;;;1.50;;
5157;SDS011;2598;52.364;9.772;2022-12-07T13:56:43;6.73;;;1.27;;
5157;SDS011;2598;52.364;9.772;2022-12-07T13:59:13;10.23;;;1.70;;
5157;SDS011;2598;52.364;9.772;2022-12-07T14:01:40;6.50;;;1.43;;
5157;SDS011;2598;52.364;9.772;2022-12-07T14:06:52;6.47;;;1.50;;
5157;SDS011;2598;52.364;9.772;2022-12-07T14:09:22;5.43;;;1.50;;
5157;SDS011;2598;52.364;9.772;2022-12-07T14:11:49;10.53;;;2.10;;
5157;SDS011;2598;52.364;9.772;2022-12-07T14:14:29;5.77;;;1.40;;
5157;SDS011;2598;52.364;9.772;2022-12-07T14:16:57;9.50;;;2.07;;
5157;SDS011;2598;52.364;9.772;2022-12-07T14:19:43;10.17;;;1.77;;
5157;SDS011;2598;52.364;9.772;2022-12-07T14:22:26;7.30;;;1.63;;
5157;SDS011;2598;52.364;9.772;2022-12-07T14:25:09;13.03;;;2.30;;
5157;SDS011;2598;52.364;9.772;2022-12-07T14:27:37;10.07;;;2.43;;
5157;SDS011;2598;52.364;9.772;2022-12-07T14:30:03;6.83;;;1.57;;
5157;SDS011;2598;52.364;9.772;2022-12-07T14:32:30;9.90;;;2.20;;
5157;SDS011;2598;52.364;9.772;2022-12-07T14:35:03;9.80;;;2.70;;
5157;SDS011;2598;52.364;9.772;2022-12-07T14:37:35;11.20;;;1.77;;
5157;SDS011;2598;52.364;9.772;2022-12-07T14:40:01;5.97;;;1.73;;
5157;SDS011;2598;52.364;9.772;2022-12-07T14:42:27;10.67;;;1.60;;
5157;SDS011;2598;52.364;9.772;2022-12-07T14:44:55;8.73;;;1.80;;
5157;SDS011;2598;52.364;9.772;2022-12-07T14:47:21;6.53;;;1.57;;
5157;SDS011;2598;52.364;9.772;2022-12-07T14:49:48;12.10;;;2.30;;
5157;SDS011;2598;52.364;9.772;2022-12-07T14:52:24;8.17;;;2.60;;
5157;SDS011;2598;52.364;9.772;2022-12-07T14:54:52;10.87;;;2.77;;
5157;SDS011;2598;52.364;9.772;2022-12-07T14:57:18;6.70;;;1.90;;
5157;SDS011;2598;52.364;9.772;2022-12-07T14:59:44;5.13;;;1.40;;
5157;SDS011;2598;52.364;9.772;2022-12-07T15:02:11;12.53;;;2.43;;
5157;SDS011;2598;52.364;9.772;2022-12-07T15:04:38;11.30;;;1.73;;
5157;SDS011;2598;52.364;9.772;2022-12-07T15:07:04;7.53;;;2.37;;
5157;SDS011;2598;52.364;9.772;2022-12-07T15:09:30;5.40;;;1.80;;
5157;SDS011;2598;52.364;9.772;2022-12-07T15:11:56;11.70;;;3.20;;
5157;SDS011;2598;52.364;9.772;2022-12-07T15:14:22;11.23;;;2.90;;
5157;SDS011;2598;52.364;9.772;2022-12-07T15:16:48;7.87;;;2.27;;
5157;SDS011;2598;52.364;9.772;2022-12-07T15:19:15;10.80;;;2.50;;
5157;SDS011;2598;52.364;9.772;2022-12-07T15:21:42;6.33;;;1.80;;
5157;SDS011;2598;52.364;9.772;2022-12-07T15:24:09;9.70;;;1.90;;
5157;SDS011;2598;52.364;9.772;2022-12-07T15:26:35;9.83;;;1.80;;
5157;SDS011;2598;52.364;9.772;2022-12-07T15:29:01;5.90;;;1.63;;
5157;SDS011;2598;52.364;9.772;2022-12-07T15:31:27;5.30;;;1.77;;
5157;SDS011;2598;52.364;9.772;2022-12-07T15:33:53;8.17;;;1.90;;
5157;SDS011;2598;52.364;9.772;2022-12-07T15:36:24;8.30;;;1.90;;
5157;SDS011;2598;52.364;9.772;2022-12-07T15:38:51;8.57;;;2.60;;
5157;SDS011;2598;52.364;9.772;2022-12-07T15:41:17;9.00;;;1.70;;
5157;SDS011;2598;52.364;9.772;2022-12-07T15:43:43;7.50;;;1.83;;
5157;SDS011;2598;52.364;9.772;2022-12-07T15:46:29;5.43;;;1.90;;
5157;SDS011;2598;52.364;9.772;2022-12-07T15:48:55;6.63;;;1.60;;
5157;SDS011;2598;52.364;9.772;2022-12-07T15:51:21;7.77;;;1.67;;
5157;SDS011;2598;52.364;9.772;2022-12-07T15:53:47;12.67;;;2.23;;
5157;SDS011;2598;52.364;9.772;2022-12-07T15:56:13;11.40;;;2.07;;
5157;SDS011;2598;52.364;9.772;2022-12-07T15:58:39;6.53;;;1.93;;
5157;SDS011;2598;52.364;9.772;2022-12-07T16:01:12;5.00;;;1.90;;
5157;SDS011;2598;52.364;9.772;2022-12-07T16:03:39;10.17;;;2.47;;
5157;SDS011;2598;52.364;9.772;2022-12-07T16:06:05;6.27;;;1.80;;
5157;SDS011;2598;52.364;9.772;2022-12-07T16:08:31;7.77;;;2.30;;
5157;SDS011;2598;52.364;9.772;2022-12-07T16:10:57;5.90;;;1.87;;
5157;SDS011;2598;52.364;9.772;2022-12-07T16:13:23;9.77;;;1.63;;
5157;SDS011;2598;52.364;9.772;2022-12-07T16:15:49;8.20;;;2.53;;
5157;SDS011;2598;52.364;9.772;2022-12-07T16:18:15;8.30;;;2.73;;
5157;SDS011;2598;52.364;9.772;2022-12-07T16:20:41;13.80;;;2.70;;
5157;SDS011;2598;52.364;9.772;2022-12-07T16:23:07;9.73;;;2.60;;
5157;SDS011;2598;52.364;9.772;2022-12-07T16:25:33;7.97;;;2.10;;
5157;SDS011;2598;52.364;9.772;2022-12-07T16:27:59;9.27;;;2.37;;
5157;SDS011;2598;52.364;9.772;2022-12-07T16:30:25;10.70;;;2.30;;
5157;SDS011;2598;52.364;9.772;2022-12-07T16:32:51;9.57;;;2.00;;
5157;SDS011;2598;52.364;9.772;2022-12-07T16:35:17;9.13;;;2.53;;
5157;SDS011;2598;52.364;9.772;2022-12-07T16:37:43;10.90;;;2.60;;
5157;SDS011;2598;52.364;9.772;2022-12-07T16:40:09;13.43;;;2.83;;
5157;SDS011;2598;52.364;9.772;2022-12-07T16:42:36;8.43;;;2.63;;
5157;SDS011;2598;52.364;9.772;2022-12-07T16:45:02;14.93;;;2.60;;
5157;SDS011;2598;52.364;9.772;2022-12-07T16:47:28;9.67;;;2.73;;
5157;SDS011;2598;52.364;9.772;2022-12-07T16:49:54;13.00;;;3.20;;
5157;SDS011;2598;52.364;9.772;2022-12-07T16:52:21;6.90;;;2.60;;
5157;SDS011;2598;52.364;9.772;2022-12-07T16:54:47;11.13;;;2.53;;
5157;SDS011;2598;52.364;9.772;2022-12-07T16:57:13;13.43;;;2.90;;
5157;SDS011;2598;52.364;9.772;2022-12-07T16:59:39;11.30;;;2.80;;
5157;SDS011;2598;52.364;9.772;2022-12-07T17:02:05;10.80;;;3.10;;
5157;SDS011;2598;52.364;9.772;2022-12-07T17:04:32;11.40;;;3.13;;
5157;SDS011;2598;52.364;9.772;2022-12-07T17:06:59;11.93;;;4.17;;
5157;SDS011;2598;52.364;9.772;2022-12-07T17:09:25;12.33;;;3.30;;
5157;SDS011;2598;52.364;9.772;2022-12-07T17:11:52;8.67;;;3.50;;
5157;SDS011;2598;52.364;9.772;2022-12-07T17:14:18;13.43;;;3.20;;
5157;SDS011;2598;52.364;9.772;2022-12-07T17:17:02;21.20;;;4.90;;
5157;SDS011;2598;52.364;9.772;2022-12-07T17:19:29;11.80;;;3.17;;
5157;SDS011;2598;52.364;9.772;2022-12-07T17:21:55;7.63;;;2.70;;
5157;SDS011;2598;52.364;9.772;2022-12-07T17:24:21;8.60;;;3.03;;
5157;SDS011;2598;52.364;9.772;2022-12-07T17:26:47;6.43;;;2.70;;
5157;SDS011;2598;52.364;9.772;2022-12-07T17:29:14;14.03;;;3.50;;
5157;SDS011;2598;52.364;9.772;2022-12-07T17:31:40;9.70;;;3.10;;
5157;SDS011;2598;52.364;9.772;2022-12-07T17:34:12;8.20;;;3.83;;
5157;SDS011;2598;52.364;9.772;2022-12-07T17:36:38;7.40;;;2.70;;
5157;SDS011;2598;52.364;9.772;2022-12-07T17:39:07;10.63;;;4.93;;
5157;SDS011;2598;52.364;9.772;2022-12-07T17:41:38;13.83;;;6.50;;
5157;SDS011;2598;52.364;9.772;2022-12-07T17:44:22;12.00;;;3.30;;
5157;SDS011;2598;52.364;9.772;2022-12-07T17:46:50;9.33;;;2.73;;
5157;SDS011;2598;52.364;9.772;2022-12-07T17:49:21;7.93;;;2.23;;
5157;SDS011;2598;52.364;9.772;2022-12-07T17:51:48;7.13;;;1.40;;
5157;SDS011;2598;52.364;9.772;2022-12-07T17:54:33;6.70;;;1.73;;
5157;SDS011;2598;52.364;9.772;2022-12-07T17:56:59;5.93;;;1.87;;
5157;SDS011;2598;52.364;9.772;2022-12-07T17:59:25;7.50;;;1.80;;
5157;SDS011;2598;52.364;9.772;2022-12-07T18:01:51;4.93;;;1.57;;
5157;SDS011;2598;52.364;9.772;2022-12-07T18:04:17;6.90;;;1.57;;
5157;SDS011;2598;52.364;9.772;2022-12-07T18:06:43;5.50;;;1.10;;
5157;SDS011;2598;52.364;9.772;2022-12-07T18:09:09;4.20;;;1.20;;
5157;SDS011;2598;52.364;9.772;2022-12-07T18:11:35;5.10;;;1.20;;
5157;SDS011;2598;52.364;9.772;2022-12-07T18:14:01;7.77;;;2.20;;
5157;SDS011;2598;52.364;9.772;2022-12-07T18:16:29;5.53;;;1.47;;
5157;SDS011;2598;52.364;9.772;2022-12-07T18:18:59;5.67;;;1.17;;
5157;SDS011;2598;52.364;9.772;2022-12-07T18:21:26;6.70;;;2.70;;
5157;SDS011;2598;52.364;9.772;2022-12-07T18:23:53;6.07;;;2.23;;
5157;SDS011;2598;52.364;9.772;2022-12-07T18:26:20;5.53;;;1.70;;
5157;SDS011;2598;52.364;9.772;2022-12-07T18:28:46;8.23;;;1.70;;
5157;SDS011;2598;52.364;9.772;2022-12-07T18:31:12;5.77;;;1.90;;
5157;SDS011;2598;52.364;9.772;2022-12-07T18:33:39;5.43;;;2.00;;
5157;SDS011;2598;52.364;9.772;2022-12-07T18:36:05;6.70;;;2.43;;
5157;SDS011;2598;52.364;9.772;2022-12-07T18:38:32;6.80;;;3.23;;
5157;SDS011;2598;52.364;9.772;2022-12-07T18:40:59;7.30;;;3.30;;
5157;SDS011;2598;52.364;9.772;2022-12-07T18:43:25;6.90;;;3.33;;
5157;SDS011;2598;52.364;9.772;2022-12-07T18:45:51;7.73;;;3.40;;
5157;SDS011;2598;52.364;9.772;2022-12-07T18:48:18;11.47;;;5.60;;
5157;SDS011;2598;52.364;9.772;2022-12-07T18:50:44;11.97;;;6.10;;
5157;SDS011;2598;52.364;9.772;2022-12-07T18:53:11;14.10;;;6.30;;
5157;SDS011;2598;52.364;9.772;2022-12-07T18:55:37;18.70;;;6.90;;
5157;SDS011;2598;52.364;9.772;2022-12-07T18:58:03;12.73;;;5.80;;
5157;SDS011;2598;52.364;9.772;2022-12-07T19:00:31;13.87;;;5.70;;
5157;SDS011;2598;52.364;9.772;2022-12-07T19:02:58;12.30;;;6.40;;
5157;SDS011;2598;52.364;9.772;2022-12-07T19:05:26;12.17;;;5.77;;
5157;SDS011;2598;52.364;9.772;2022-12-07T19:07:52;18.10;;;7.77;;
5157;SDS011;2598;52.364;9.772;2022-12-07T19:10:19;16.90;;;8.50;;
5157;SDS011;2598;52.364;9.772;2022-12-07T19:12:45;12.30;;;7.03;;
5157;SDS011;2598;52.364;9.772;2022-12-07T19:15:12;14.10;;;6.33;;
5157;SDS011;2598;52.364;9.772;2022-12-07T19:17:39;12.47;;;5.53;;
5157;SDS011;2598;52.364;9.772;2022-12-07T19:20:06;11.13;;;5.30;;
5157;SDS011;2598;52.364;9.772;2022-12-07T19:22:32;16.33;;;4.50;;
5157;SDS011;2598;52.364;9.772;2022-12-07T19:24:58;14.13;;;4.43;;
5157;SDS011;2598;52.364;9.772;2022-12-07T19:27:24;14.67;;;4.43;;
5157;SDS011;2598;52.364;9.772;2022-12-07T19:29:51;12.47;;;4.40;;
5157;SDS011;2598;52.364;9.772;2022-12-07T19:32:17;13.63;;;4.07;;
5157;SDS011;2598;52.364;9.772;2022-12-07T19:34:44;11.53;;;4.20;;
5157;SDS011;2598;52.364;9.772;2022-12-07T19:37:11;14.27;;;4.30;;
5157;SDS011;2598;52.364;9.772;2022-12-07T19:39:38;10.43;;;4.27;;
5157;SDS011;2598;52.364;9.772;2022-12-07T19:42:04;9.73;;;4.13;;
5157;SDS011;2598;52.364;9.772;2022-12-07T19:44:30;10.30;;;3.80;;
5157;SDS011;2598;52.364;9.772;2022-12-07T19:46:58;17.57;;;4.90;;
5157;SDS011;2598;52.364;9.772;2022-12-07T19:49:25;9.60;;;4.13;;
5157;SDS011;2598;52.364;9.772;2022-12-07T19:51:52;8.67;;;3.70;;
5157;SDS011;2598;52.364;9.772;2022-12-07T19:54:19;8.60;;;2.53;;
5157;SDS011;2598;52.364;9.772;2022-12-07T19:56:46;11.53;;;2.90;;
5157;SDS011;2598;52.364;9.772;2022-12-07T19:59:12;8.03;;;2.60;;
5157;SDS011;2598;52.364;9.772;2022-12-07T20:01:38;12.37;;;2.83;;
5157;SDS011;2598;52.364;9.772;2022-12-07T20:04:06;9.33;;;2.40;;
5157;SDS011;2598;52.364;9.772;2022-12-07T20:06:32;6.97;;;2.60;;
5157;SDS011;2598;52.364;9.772;2022-12-07T20:08:58;8.10;;;2.37;;
5157;SDS011;2598;52.364;9.772;2022-12-07T20:11:25;11.33;;;2.50;;
5157;SDS011;2598;52.364;9.772;2022-12-07T20:14:10;9.50;;;2.70;;
5157;SDS011;2598;52.364;9.772;2022-12-07T20:16:36;5.93;;;2.37;;
5157;SDS011;2598;52.364;9.772;2022-12-07T20:19:08;7.37;;;2.30;;
5157;SDS011;2598;52.364;9.772;2022-12-07T20:21:34;8.13;;;2.33;;
5157;SDS011;2598;52.364;9.772;2022-12-07T20:24:01;6.43;;;2.47;;
5157;SDS011;2598;52.364;9.772;2022-12-07T20:26:27;11.30;;;2.67;;
5157;SDS011;2598;52.364;9.772;2022-12-07T20:28:53;6.90;;;2.40;;
5157;SDS011;2598;52.364;9.772;2022-12-07T20:31:19;8.20;;;2.37;;
5157;SDS011;2598;52.364;9.772;2022-12-07T20:33:45;6.57;;;2.70;;
5157;SDS011;2598;52.364;9.772;2022-12-07T20:36:12;8.60;;;2.90;;
5157;SDS011;2598;52.364;9.772;2022-12-07T20:38:38;7.73;;;2.13;;
5157;SDS011;2598;52.364;9.772;2022-12-07T20:41:07;6.00;;;2.20;;
5157;SDS011;2598;52.364;9.772;2022-12-07T20:43:53;9.40;;;2.20;;
5157;SDS011;2598;52.364;9.772;2022-12-07T20:46:19;9.70;;;2.40;;
5157;SDS011;2598;52.364;9.772;2022-12-07T20:48:45;8.00;;;2.67;;
5157;SDS011;2598;52.364;9.772;2022-12-07T20:51:11;8.00;;;2.27;;
5157;SDS011;2598;52.364;9.772;2022-12-07T20:53:37;10.57;;;2.60;;
5157;SDS011;2598;52.364;9.772;2022-12-07T20:56:03;11.23;;;3.27;;
5157;SDS011;2598;52.364;9.772;2022-12-07T20:58:29;7.53;;;2.40;;
5157;SDS011;2598;52.364;9.772;2022-12-07T21:00:59;9.60;;;3.00;;
5157;SDS011;2598;52.364;9.772;2022-12-07T21:03:25;7.33;;;2.40;;
5157;SDS011;2598;52.364;9.772;2022-12-07T21:05:51;10.73;;;3.70;;
5157;SDS011;2598;52.364;9.772;2022-12-07T21:08:17;8.80;;;2.87;;
5157;SDS011;2598;52.364;9.772;2022-12-07T21:10:43;8.43;;;3.00;;
5157;SDS011;2598;52.364;9.772;2022-12-07T21:13:09;8.63;;;2.70;;
5157;SDS011;2598;52.364;9.772;2022-12-07T21:15:37;11.20;;;3.00;;
5157;SDS011;2598;52.364;9.772;2022-12-07T21:18:03;8.13;;;3.30;;
5157;SDS011;2598;52.364;9.772;2022-12-07T21:20:29;12.53;;;3.80;;
5157;SDS011;2598;52.364;9.772;2022-12-07T21:22:55;8.80;;;2.90;;
5157;SDS011;2598;52.364;9.772;2022-12-07T21:25:21;12.57;;;3.47;;
5157;SDS011;2598;52.364;9.772;2022-12-07T21:27:47;8.37;;;3.47;;
5157;SDS011;2598;52.364;9.772;2022-12-07T21:30:13;6.73;;;3.30;;
5157;SDS011;2598;52.364;9.772;2022-12-07T21:32:39;10.93;;;3.23;;
5157;SDS011;2598;52.364;9.772;2022-12-07T21:35:05;8.87;;;3.37;;
5157;SDS011;2598;52.364;9.772;2022-12-07T21:37:31;10.10;;;4.13;;
5157;SDS011;2598;52.364;9.772;2022-12-07T21:39:57;11.13;;;4.40;;
5157;SDS011;2598;52.364;9.772;2022-12-07T21:42:23;10.27;;;4.10;;
5157;SDS011;2598;52.364;9.772;2022-12-07T21:44:49;10.07;;;4.27;;
5157;SDS011;2598;52.364;9.772;2022-12-07T21:47:15;9.73;;;3.47;;
5157;SDS011;2598;52.364;9.772;2022-12-07T21:49:41;8.47;;;3.53;;
5157;SDS011;2598;52.364;9.772;2022-12-07T21:52:07;8.23;;;3.80;;
5157;SDS011;2598;52.364;9.772;2022-12-07T21:54:33;14.10;;;3.70;;
5157;SDS011;2598;52.364;9.772;2022-12-07T21:56:59;9.40;;;3.50;;
5157;SDS011;2598;52.364;9.772;2022-12-07T21:59:25;7.77;;;3.03;;
5157;SDS011;2598;52.364;9.772;2022-12-07T22:01:51;11.53;;;4.00;;
5157;SDS011;2598;52.364;9.772;2022-12-07T22:04:18;9.37;;;3.37;;
5157;SDS011;2598;52.364;9.772;2022-12-07T22:06:45;9.83;;;3.80;;
5157;SDS011;2598;52.364;9.772;2022-12-07T22:09:11;11.03;;;3.80;;
5157;SDS011;2598;52.364;9.772;2022-12-07T22:11:37;10.57;;;4.03;;
5157;SDS011;2598;52.364;9.772;2022-12-07T22:14:04;8.10;;;3.47;;
5157;SDS011;2598;52.364;9.772;2022-12-07T22:16:52;11.27;;;3.80;;
5157;SDS011;2598;52.364;9.772;2022-12-07T22:19:18;8.40;;;3.70;;
5157;SDS011;2598;52.364;9.772;2022-12-07T22:21:44;9.93;;;3.80;;
5157;SDS011;2598;52.364;9.772;2022-12-07T22:24:10;7.67;;;3.60;;
5157;SDS011;2598;52.364;9.772;2022-12-07T22:26:38;9.03;;;3.80;;
5157;SDS011;2598;52.364;9.772;2022-12-07T22:29:04;7.70;;;3.60;;
5157;SDS011;2598;52.364;9.772;2022-12-07T22:31:30;9.73;;;3.37;;
5157;SDS011;2598;52.364;9.772;2022-12-07T22:33:56;7.13;;;3.20;;
5157;SDS011;2598;52.364;9.772;2022-12-07T22:36:22;14.43;;;3.80;;
5157;SDS011;2598;52.364;9.772;2022-12-07T22:38:48;8.17;;;3.10;;
5157;SDS011;2598;52.364;9.772;2022-12-07T22:41:17;9.00;;;3.97;;
5157;SDS011;2598;52.364;9.772;2022-12-07T22:43:43;9.47;;;3.60;;
5157;SDS011;2598;52.364;9.772;2022-12-07T22:46:09;13.97;;;4.33;;
5157;SDS011;2598;52.364;9.772;2022-12-07T22:48:35;18.03;;;4.40;;
5157;SDS011;2598;52.364;9.772;2022-12-07T22:51:02;13.10;;;3.47;;
5157;SDS011;2598;52.364;9.772;2022-12-07T22:53:28;7.87;;;3.00;;
5157;SDS011;2598;52.364;9.772;2022-12-07T22:55:54;12.37;;;3.80;;
5157;SDS011;2598;52.364;9.772;2022-12-07T22:58:20;10.37;;;3.73;;
5157;SDS011;2598;52.364;9.772;2022-12-07T23:00:46;14.27;;;4.10;;
5157;SDS011;2598;52.364;9.772;2022-12-07T23:03:12;14.70;;;4.73;;
5157;SDS011;2598;52.364;9.772;2022-12-07T23:05:42;10.97;;;4.13;;
5157;SDS011;2598;52.364;9.772;2022-12-07T23:08:08;9.80;;;4.93;;
5157;SDS011;2598;52.364;9.772;2022-12-07T23:10:34;12.57;;;5.17;;
5157;SDS011;2598;52.364;9.772;2022-12-07T23:13:00;9.73;;;4.93;;
5157;SDS011;2598;52.364;9.772;2022-12-07T23:15:45;9.00;;;5.30;;
5157;SDS011;2598;52.364;9.772;2022-12-07T23:18:11;11.27;;;5.20;;
5157;SDS011;2598;52.364;9.772;2022-12-07T23:20:37;14.40;;;5.83;;
5157;SDS011;2598;52.364;9.772;2022-12-07T23:23:03;11.80;;;5.73;;
5157;SDS011;2598;52.364;9.772;2022-12-07T23:25:29;11.53;;;5.50;;
5157;SDS011;2598;52.364;9.772;2022-12-07T23:27:55;15.90;;;5.80;;
5157;SDS011;2598;52.364;9.772;2022-12-07T23:30:21;12.37;;;6.73;;
5157;SDS011;2598;52.364;9.772;2022-12-07T23:32:47;11.23;;;5.50;;
5157;SDS011;2598;52.364;9.772;2022-12-07T23:35:13;13.37;;;6.20;;
5157;SDS011;2598;52.364;9.772;2022-12-07T23:37:39;12.40;;;6.60;;
5157;SDS011;2598;52.364;9.772;2022-12-07T23:40:05;14.07;;;7.10;;
5157;SDS011;2598;52.364;9.772;2022-12-07T23:42:31;16.00;;;8.40;;
5157;SDS011;2598;52.364;9.772;2022-12-07T23:44:57;15.30;;;7.20;;
5157;SDS011;2598;52.364;9.772;2022-12-07T23:47:23;21.63;;;8.37;;
5157;SDS011;2598;52.364;9.772;2022-12-07T23:49:49;19.77;;;8.67;;
5157;SDS011;2598;52.364;9.772;2022-12-07T23:52:15;16.10;;;6.93;;
5157;SDS011;2598;52.364;9.772;2022-12-07T23:54:41;22.77;;;9.20;;
5157;SDS011;2598;52.364;9.772;2022-12-07T23:57:07;15.00;;;7.50;;
5157;SDS011;2598;52.364;9.772;2022-12-07T23:59:33;15.30;;;6.50;;
